Aérodrome :
LOGIN :

S'inscrire | Disclaimer

   EN    FR    IT 

 










Légende :    VFR   VFR Marginal   IFR   IFR Intensif   IFR Très Intensif
Visi : 
Plafond : 
>= 8 km
>= 3000ft
5 à 8 km
1000 à 3000 ft
1500m à 5 km
500 à 1000 ft
800 à 1500m
200 à 500 ft
< 800m
< 200 ft
Symboles :   Orages  Brouillard  Fortes neiges  Fortes précipitations  Vent > 20 kt
SIGMETs :   Divers  Orages  Givrage  Turbulence  Onde Orograph.  Cendres Volcan.







- Altitude de l'aérodrome : 197 ft
- Code IATA : XOG
- Voir les cartes d'approche


LFMO - Orange

DERNIER METAR :
  • 281200Z AUTO 32004KT 270V350 9999 VCTS SCT040/// SCT049/// OVC058/// ///CB 24/16 Q1002 TEMPO VRB15G25KT 2000 TSRA

METARs EXPIRÉS :
  • 281130Z AUTO 26006KT 230V310 9999 TSRA BKN040/// BKN056/// BKN082/// ///CB 23/15 Q1003 TEMPO VRB15G25KT 2000 TSRA
  • 281100Z AUTO VRB03KT 9999 ///TCU 26/15 Q1003 TEMPO 4000 SHRA
  • 281030Z AUTO 20003KT 140V260 9999 ///TCU 24/15 Q1003 TEMPO 4000 SHRA
  • 281000Z AUTO 14003KT 060V190 9999 BKN078 BKN100 OVC140 24/14 Q1003 TEMPO 4000 SHRA SCT060TCU
  • 280930Z AUTO VRB01KT 9999 BKN074 OVC150 24/15 Q1003 TEMPO 4000 SHRA SCT060TCU

TAF TAF LFMO
Valide du 28 à 09h jusqu'au 29 à 09h UTC


280800Z 2809/2909 33003KT CAVOK
TEMPO 2809/2820 4000 SHRA SCT060TCU
BECMG 2810/2812 18010KT
PROB40
TEMPO 2813/2820 VRB15G25KT 2000 TSRA SCT050CB
BECMG 2820/2822 VRB02KT
BECMG 2902/2904 14006KT
Pas de NOTAMs connus pour ce terrain.
1 SIGMET publié pour la FIR Marseille (LFMM) :
 
Orages noyés dans la masse
LFMM SIGMET 9 VALID 281100/281300 LFPW
LFMM MARSEILLE FIR/UIR EMBD TS OBS AT 1100Z WI N4445 E00700 - N4400 E00700 - N4345 E00800 - N4230 E00730 - N4230 E00630 - N4415 E00600 TOP FL330 MOV NE 25KT NC=



MET'MAP, la Météo Aéronautique d'un coup d'oeil ! - Copyright ORBIFLY Décembre 2007 - Disclaimer

ORBIFLY MET'MAP TEAM :

Programmation & Développement : Alexandra Zaïnal
Conception & Développement : Baudouin d'Aumeries
Co-Programmation & Développement : Marc-Olivier Méhu
Soutien technique & logistique : Manuel Goepfert

Contact : metmap@orbifly.com




SOURCES & CREDITS :

   NOAA